Time;durP1;ratioP1;P1;durP2;ratioP2;P2;SDS_P1;SDS_P2;PMS_P1;PMS_P2;Temp;Humidity;BMP_temperature;BMP_pressure;BME280_temperature;BME280_humidity;BME280_pressure;Samples;Min_cycle;Max_cycle;Signal;HPM_P1;HPM_P2
2023/09/02 00:01:37;;;;;;;3.45;1.92;;;;;;;;;;4994003;28;20054;-65
2023/09/02 00:04:06;;;;;;;5.40;1.98;;;;;;;;;;4999922;28;20105;-67
2023/09/02 00:06:34;;;;;;;6.70;1.85;;;;;;;;;;5006030;28;20434;-62
2023/09/02 00:09:03;;;;;;;4.13;2.10;;;;;;;;;;5011138;28;20096;-63
2023/09/02 00:11:31;;;;;;;2.88;1.80;;;;;;;;;;5013910;28;20050;-63
2023/09/02 00:14:00;;;;;;;3.53;2.05;;;;;;;;;;5005226;28;20488;-64
2023/09/02 00:16:28;;;;;;;4.95;1.75;;;;;;;;;;5008161;28;20104;-65
2023/09/02 00:18:58;;;;;;;4.40;1.90;;;;;;;;;;5015890;28;20056;-64
2023/09/02 00:21:26;;;;;;;4.22;2.28;;;;;;;;;;5016558;28;20077;-62
2023/09/02 00:24:02;;;;;;;2.95;1.50;;;;;;;;;;5013569;28;20120;-62
2023/09/02 00:26:31;;;;;;;4.47;1.73;;;;;;;;;;5011531;28;20049;-63
2023/09/02 00:28:59;;;;;;;6.07;2.17;;;;;;;;;;5015013;28;20050;-70
2023/09/02 00:31:28;;;;;;;4.57;1.95;;;;;;;;;;5015877;28;20096;-62
2023/09/02 00:33:56;;;;;;;4.13;1.52;;;;;;;;;;5010133;28;20071;-63
2023/09/02 00:36:26;;;;;;;5.13;1.65;;;;;;;;;;5009972;28;20061;-65
2023/09/02 00:38:54;;;;;;;3.75;1.92;;;;;;;;;;5008231;28;20092;-62
2023/09/02 00:41:26;;;;;;;3.67;1.70;;;;;;;;;;5008917;28;20569;-67
2023/09/02 00:43:56;;;;;;;2.55;1.52;;;;;;;;;;5009852;28;20542;-64
2023/09/02 00:46:25;;;;;;;3.22;1.67;;;;;;;;;;5012662;28;20141;-63
2023/09/02 00:48:53;;;;;;;2.85;2.00;;;;;;;;;;5010199;28;20286;-63
2023/09/02 00:51:22;;;;;;;4.22;2.05;;;;;;;;;;5005440;28;20129;-64
2023/09/02 00:53:51;;;;;;;3.50;1.60;;;;;;;;;;5003218;28;20574;-68
2023/09/02 00:56:20;;;;;;;3.78;2.10;;;;;;;;;;5005191;28;20054;-63
2023/09/02 00:58:48;;;;;;;6.43;2.42;;;;;;;;;;5010954;28;20046;-63
2023/09/02 01:01:17;;;;;;;7.68;2.53;;;;;;;;;;5013715;28;20046;-65
2023/09/02 01:03:45;;;;;;;7.30;3.05;;;;;;;;;;5018783;23;20054;-62
2023/09/02 01:06:14;;;;;;;9.10;4.05;;;;;;;;;;4984335;28;20046;-66
2023/09/02 01:08:43;;;;;;;9.20;3.58;;;;;;;;;;4983107;28;20093;-62
2023/09/02 01:11:13;;;;;;;9.48;4.30;;;;;;;;;;4972450;28;20133;-58
2023/09/02 01:13:41;;;;;;;7.32;3.90;;;;;;;;;;4967493;28;20046;-60
2023/09/02 01:16:09;;;;;;;10.88;3.75;;;;;;;;;;4964537;28;20339;-68
2023/09/02 01:18:38;;;;;;;7.00;2.60;;;;;;;;;;4965627;28;20575;-66
2023/09/02 01:21:24;;;;;;;6.10;2.63;;;;;;;;;;4965766;28;20051;-60
2023/09/02 01:24:03;;;;;;;5.57;2.65;;;;;;;;;;4968431;28;20218;-62
2023/09/02 01:26:41;;;;;;;6.88;2.95;;;;;;;;;;4965986;28;20054;-64
2023/09/02 01:29:14;;;;;;;5.95;2.25;;;;;;;;;;4965115;28;20129;-58
2023/09/02 01:31:43;;;;;;;7.13;2.17;;;;;;;;;;4965147;28;20125;-58
2023/09/02 01:34:11;;;;;;;5.13;2.08;;;;;;;;;;4964264;28;20121;-59
2023/09/02 01:36:41;;;;;;;4.55;2.15;;;;;;;;;;4967188;28;20658;-60
2023/09/02 01:39:10;;;;;;;3.13;1.90;;;;;;;;;;4965871;28;20145;-58
2023/09/02 01:41:40;;;;;;;3.42;1.80;;;;;;;;;;4982661;28;20132;-58
2023/09/02 01:44:11;;;;;;;3.13;1.88;;;;;;;;;;4983721;28;20046;-60
2023/09/02 01:46:39;;;;;;;4.10;1.92;;;;;;;;;;4984404;28;20100;-59
2023/09/02 01:49:08;;;;;;;4.30;2.20;;;;;;;;;;4983997;28;20086;-59
2023/09/02 01:51:36;;;;;;;5.07;1.65;;;;;;;;;;4985088;28;20467;-61
2023/09/02 01:54:05;;;;;;;5.07;1.88;;;;;;;;;;4987074;28;20041;-67
2023/09/02 01:56:33;;;;;;;4.30;1.95;;;;;;;;;;4983947;28;20543;-58
2023/09/02 01:59:02;;;;;;;4.20;1.90;;;;;;;;;;4984306;28;20125;-61
2023/09/02 02:01:31;;;;;;;2.65;1.60;;;;;;;;;;4985171;28;20073;-58
2023/09/02 02:04:03;;;;;;;5.15;2.10;;;;;;;;;;4984345;28;20058;-60
2023/09/02 02:06:32;;;;;;;2.58;1.80;;;;;;;;;;4983306;28;20156;-59
2023/09/02 02:09:04;;;;;;;5.95;1.88;;;;;;;;;;4982392;28;20050;-59
2023/09/02 02:11:34;;;;;;;3.15;1.88;;;;;;;;;;4983144;28;20058;-66
2023/09/02 02:14:03;;;;;;;3.28;1.63;;;;;;;;;;4984862;28;20065;-61
2023/09/02 02:16:33;;;;;;;2.53;1.70;;;;;;;;;;4985391;28;20411;-62
2023/09/02 02:19:02;;;;;;;6.65;1.48;;;;;;;;;;4985303;28;20077;-59
2023/09/02 02:21:31;;;;;;;2.63;1.60;;;;;;;;;;4984806;28;20097;-58
2023/09/02 02:23:59;;;;;;;8.75;1.63;;;;;;;;;;4984700;28;20143;-59
2023/09/02 02:26:27;;;;;;;4.40;1.73;;;;;;;;;;4984879;28;20137;-68
2023/09/02 02:28:56;;;;;;;5.40;1.80;;;;;;;;;;4984280;28;20437;-61
2023/09/02 02:31:24;;;;;;;4.90;1.63;;;;;;;;;;4983783;28;20069;-59
2023/09/02 02:33:54;;;;;;;2.92;1.50;;;;;;;;;;4983551;28;20045;-58
2023/09/02 02:36:22;;;;;;;3.13;1.40;;;;;;;;;;4983071;28;20515;-62
2023/09/02 02:38:51;;;;;;;3.72;1.70;;;;;;;;;;4984256;28;20101;-58
2023/09/02 02:41:19;;;;;;;3.33;1.40;;;;;;;;;;4981099;28;20056;-67
2023/09/02 02:43:47;;;;;;;6.22;1.30;;;;;;;;;;4981518;28;20515;-59
2023/09/02 02:46:16;;;;;;;3.05;1.75;;;;;;;;;;4985575;28;20464;-58
2023/09/02 02:48:44;;;;;;;3.35;1.60;;;;;;;;;;4982330;28;20112;-60
2023/09/02 02:51:14;;;;;;;4.47;1.83;;;;;;;;;;4983293;28;20084;-60
2023/09/02 02:53:42;;;;;;;2.90;1.52;;;;;;;;;;4984375;28;20062;-59
2023/09/02 02:56:11;;;;;;;1.95;1.50;;;;;;;;;;4984106;28;20050;-60
2023/09/02 02:58:39;;;;;;;5.50;1.63;;;;;;;;;;4983313;28;20062;-64
2023/09/02 03:01:08;;;;;;;3.00;1.38;;;;;;;;;;4983900;28;20042;-67
2023/09/02 03:03:37;;;;;;;3.55;1.40;;;;;;;;;;4984513;28;20331;-61
2023/09/02 03:06:05;;;;;;;2.65;1.33;;;;;;;;;;4984880;28;20295;-59
2023/09/02 03:08:36;;;;;;;2.85;1.40;;;;;;;;;;4983531;28;20129;-61
2023/09/02 03:11:05;;;;;;;6.28;1.85;;;;;;;;;;4982971;28;20043;-68
2023/09/02 03:13:34;;;;;;;3.47;1.70;;;;;;;;;;4984765;28;20038;-61
2023/09/02 03:16:03;;;;;;;2.70;1.27;;;;;;;;;;4984901;28;20050;-59
2023/09/02 03:18:32;;;;;;;2.60;1.70;;;;;;;;;;4982066;28;20046;-59
2023/09/02 03:21:03;;;;;;;5.80;2.22;;;;;;;;;;4983572;28;20140;-58
2023/09/02 03:23:31;;;;;;;3.13;1.80;;;;;;;;;;4983091;28;20039;-58
2023/09/02 03:26:08;;;;;;;3.88;1.77;;;;;;;;;;4984567;28;20050;-62
2023/09/02 03:28:37;;;;;;;3.17;1.48;;;;;;;;;;4982588;28;20120;-63
2023/09/02 03:31:06;;;;;;;5.57;1.95;;;;;;;;;;4983355;28;20054;-61
2023/09/02 03:33:34;;;;;;;4.43;1.73;;;;;;;;;;4981989;28;20093;-62
2023/09/02 03:36:03;;;;;;;3.90;1.63;;;;;;;;;;4983480;28;20128;-61
2023/09/02 03:38:31;;;;;;;3.72;1.85;;;;;;;;;;4982177;28;20051;-60
2023/09/02 03:41:00;;;;;;;2.53;1.45;;;;;;;;;;4986762;28;20108;-66
2023/09/02 03:43:30;;;;;;;4.03;1.42;;;;;;;;;;4988511;28;20046;-62
2023/09/02 03:45:58;;;;;;;3.22;1.52;;;;;;;;;;4987290;28;20180;-59
2023/09/02 03:48:27;;;;;;;3.58;1.67;;;;;;;;;;4986545;28;20160;-58
2023/09/02 03:51:03;;;;;;;4.13;1.58;;;;;;;;;;4989653;28;20046;-60
2023/09/02 03:53:32;;;;;;;2.50;1.42;;;;;;;;;;4984343;28;20046;-60
2023/09/02 03:56:01;;;;;;;8.80;1.60;;;;;;;;;;4984787;28;20042;-67
2023/09/02 03:58:31;;;;;;;4.97;1.60;;;;;;;;;;4987738;28;20108;-60
2023/09/02 04:00:59;;;;;;;3.40;1.40;;;;;;;;;;4986452;28;20613;-58
2023/09/02 04:03:28;;;;;;;2.95;1.58;;;;;;;;;;4985487;28;20129;-61
2023/09/02 04:05:56;;;;;;;3.22;1.50;;;;;;;;;;4984027;28;20051;-61
2023/09/02 04:08:26;;;;;;;2.15;1.42;;;;;;;;;;4985403;28;20058;-67
2023/09/02 04:10:55;;;;;;;3.38;1.63;;;;;;;;;;4986039;28;20058;-64
2023/09/02 04:13:24;;;;;;;4.93;1.40;;;;;;;;;;4985372;28;20054;-58
2023/09/02 04:15:55;;;;;;;2.58;1.40;;;;;;;;;;4988169;28;20061;-61
2023/09/02 04:18:24;;;;;;;3.13;1.55;;;;;;;;;;4983542;28;20054;-61
2023/09/02 04:20:53;;;;;;;2.50;1.40;;;;;;;;;;4985469;28;20050;-59
2023/09/02 04:23:21;;;;;;;4.18;1.55;;;;;;;;;;4985567;28;20514;-60
2023/09/02 04:25:51;;;;;;;2.85;1.40;;;;;;;;;;4985559;28;20062;-61
2023/09/02 04:28:19;;;;;;;1.42;0.85;;;;;;;;;;4985318;28;20078;-60
2023/09/02 04:30:48;;;;;;;2.33;1.30;;;;;;;;;;4984604;28;20046;-62
2023/09/02 04:33:18;;;;;;;2.47;1.33;;;;;;;;;;4986093;28;20128;-68
2023/09/02 04:35:47;;;;;;;2.65;1.33;;;;;;;;;;4984987;28;20599;-60
2023/09/02 04:38:15;;;;;;;1.73;1.02;;;;;;;;;;4986534;28;20082;-58
2023/09/02 04:40:44;;;;;;;2.85;1.48;;;;;;;;;;4987291;28;20050;-59
2023/09/02 04:43:14;;;;;;;3.53;1.45;;;;;;;;;;4985325;28;20054;-68
2023/09/02 04:45:43;;;;;;;2.88;1.48;;;;;;;;;;4986308;28;20503;-63
2023/09/02 04:48:12;;;;;;;2.08;1.23;;;;;;;;;;4985653;28;20488;-59
2023/09/02 04:50:42;;;;;;;1.83;1.42;;;;;;;;;;4984614;28;20471;-58
2023/09/02 04:53:10;;;;;;;3.13;1.58;;;;;;;;;;4986945;28;20094;-59
2023/09/02 04:55:39;;;;;;;3.05;1.35;;;;;;;;;;4984625;28;20129;-60
2023/09/02 04:58:08;;;;;;;1.67;0.90;;;;;;;;;;4986044;28;20133;-65
2023/09/02 05:00:37;;;;;;;1.30;1.17;;;;;;;;;;4985625;28;20054;-61
2023/09/02 05:03:06;;;;;;;2.20;1.60;;;;;;;;;;4983393;28;20042;-59
2023/09/02 05:05:34;;;;;;;5.18;1.40;;;;;;;;;;4946131;28;20480;-62
2023/09/02 05:08:04;;;;;;;2.35;1.50;;;;;;;;;;4948118;28;20126;-61
2023/09/02 05:10:33;;;;;;;2.30;1.15;;;;;;;;;;4945701;28;20063;-67
2023/09/02 05:13:02;;;;;;;3.60;1.77;;;;;;;;;;4948150;28;20480;-58
2023/09/02 05:15:30;;;;;;;2.58;1.30;;;;;;;;;;4944857;28;20504;-58
2023/09/02 05:17:59;;;;;;;3.42;1.40;;;;;;;;;;4946409;28;20051;-58
2023/09/02 05:20:27;;;;;;;2.47;1.20;;;;;;;;;;4945362;28;20521;-59
2023/09/02 05:22:56;;;;;;;2.08;1.38;;;;;;;;;;4947004;28;20127;-60
2023/09/02 05:25:28;;;;;;;2.80;1.30;;;;;;;;;;4944953;28;20074;-59
2023/09/02 05:27:56;;;;;;;3.80;1.40;;;;;;;;;;4945711;28;20043;-58
2023/09/02 05:30:24;;;;;;;3.00;2.00;;;;;;;;;;4947138;28;20062;-58
2023/09/02 05:32:53;;;;;;;2.10;1.25;;;;;;;;;;4947134;28;20054;-58
2023/09/02 05:35:21;;;;;;;2.00;1.30;;;;;;;;;;4945264;28;20035;-57
2023/09/02 05:37:50;;;;;;;3.83;1.60;;;;;;;;;;4947298;28;20237;-58
2023/09/02 05:40:18;;;;;;;1.88;1.02;;;;;;;;;;4943531;28;20421;-59
2023/09/02 05:42:48;;;;;;;3.60;1.13;;;;;;;;;;4945470;28;20043;-60
2023/09/02 05:45:16;;;;;;;2.20;1.30;;;;;;;;;;4946095;28;20082;-61
2023/09/02 05:47:45;;;;;;;2.17;1.45;;;;;;;;;;4944336;28;20047;-58
2023/09/02 05:50:13;;;;;;;4.75;1.30;;;;;;;;;;4940988;28;20052;-58
2023/09/02 05:52:41;;;;;;;2.92;1.40;;;;;;;;;;4945570;28;20051;-59
2023/09/02 05:55:10;;;;;;;1.58;0.95;;;;;;;;;;4941172;28;20047;-65
2023/09/02 05:57:38;;;;;;;2.70;1.50;;;;;;;;;;4947896;28;20043;-63
2023/09/02 06:00:09;;;;;;;3.17;1.10;;;;;;;;;;4942242;28;20544;-62
2023/09/02 06:02:37;;;;;;;4.85;1.48;;;;;;;;;;4948746;28;20060;-58
2023/09/02 06:05:06;;;;;;;2.80;1.40;;;;;;;;;;4976518;28;20069;-57
2023/09/02 06:07:35;;;;;;;4.43;1.63;;;;;;;;;;4982479;28;20058;-65
2023/09/02 06:10:03;;;;;;;2.55;1.23;;;;;;;;;;4984485;28;20054;-61
2023/09/02 06:12:32;;;;;;;3.90;1.70;;;;;;;;;;4984174;28;20058;-59
2023/09/02 06:15:00;;;;;;;2.60;1.50;;;;;;;;;;4984668;28;20455;-58
2023/09/02 06:17:31;;;;;;;3.45;1.40;;;;;;;;;;4983213;28;20463;-58
2023/09/02 06:20:00;;;;;;;5.95;1.85;;;;;;;;;;4985534;28;20064;-61
2023/09/02 06:22:28;;;;;;;3.22;1.58;;;;;;;;;;4983937;28;20045;-60
2023/09/02 06:24:59;;;;;;;3.03;1.50;;;;;;;;;;4984666;28;20046;-62
2023/09/02 06:27:28;;;;;;;4.05;1.55;;;;;;;;;;4984535;28;20252;-58
2023/09/02 06:29:56;;;;;;;2.53;1.58;;;;;;;;;;4983669;28;20050;-62
2023/09/02 06:32:25;;;;;;;2.67;1.60;;;;;;;;;;4980444;28;20105;-61
2023/09/02 06:34:55;;;;;;;1.75;1.17;;;;;;;;;;4984744;28;20043;-59
2023/09/02 06:37:23;;;;;;;2.63;1.40;;;;;;;;;;4985020;28;20108;-61
2023/09/02 06:39:53;;;;;;;7.72;2.38;;;;;;;;;;4982064;28;20050;-60
2023/09/02 06:42:22;;;;;;;3.22;1.67;;;;;;;;;;4983031;28;20140;-59
2023/09/02 06:44:53;;;;;;;2.67;1.65;;;;;;;;;;4984586;28;20066;-60
2023/09/02 06:47:22;;;;;;;5.75;1.52;;;;;;;;;;4981686;28;20404;-59
2023/09/02 06:49:50;;;;;;;2.83;1.85;;;;;;;;;;4981093;28;20057;-58
2023/09/02 06:52:20;;;;;;;2.75;1.65;;;;;;;;;;4984657;28;20050;-61
2023/09/02 06:54:49;;;;;;;2.22;1.50;;;;;;;;;;4982325;28;20069;-58
2023/09/02 06:57:17;;;;;;;3.17;1.67;;;;;;;;;;4979529;28;20158;-60
2023/09/02 06:59:46;;;;;;;2.42;1.48;;;;;;;;;;4979517;28;20124;-64
2023/09/02 07:02:14;;;;;;;2.88;1.58;;;;;;;;;;4977222;28;20364;-60
2023/09/02 07:04:42;;;;;;;5.88;1.70;;;;;;;;;;4978677;28;20105;-60
2023/09/02 07:07:11;;;;;;;2.72;1.63;;;;;;;;;;4980790;28;20142;-60
2023/09/02 07:09:40;;;;;;;3.13;1.65;;;;;;;;;;4981751;28;20180;-61
2023/09/02 07:12:09;;;;;;;2.75;1.30;;;;;;;;;;4983248;28;20057;-62
2023/09/02 07:14:37;;;;;;;3.72;1.63;;;;;;;;;;4980614;28;20566;-59
2023/09/02 07:17:06;;;;;;;3.22;1.38;;;;;;;;;;4982186;28;20050;-60
2023/09/02 07:19:34;;;;;;;3.65;1.88;;;;;;;;;;4981177;28;20463;-60
2023/09/02 07:22:02;;;;;;;5.72;1.95;;;;;;;;;;4982409;28;20142;-60
2023/09/02 07:24:31;;;;;;;4.68;1.80;;;;;;;;;;4983380;28;20472;-60
2023/09/02 07:27:00;;;;;;;3.47;1.67;;;;;;;;;;4981267;28;20035;-60
2023/09/02 07:29:29;;;;;;;3.00;1.85;;;;;;;;;;4982668;28;20054;-61
2023/09/02 07:31:57;;;;;;;5.45;1.65;;;;;;;;;;4981552;28;20061;-58
2023/09/02 07:34:26;;;;;;;3.25;1.70;;;;;;;;;;4984072;28;20058;-68
2023/09/02 07:36:54;;;;;;;6.38;1.63;;;;;;;;;;4982762;28;20120;-59
2023/09/02 07:39:22;;;;;;;2.40;1.55;;;;;;;;;;4981395;28;20109;-58
2023/09/02 07:41:51;;;;;;;3.05;1.60;;;;;;;;;;4980368;28;20124;-62
2023/09/02 07:44:21;;;;;;;3.22;1.95;;;;;;;;;;4977420;28;20058;-65
2023/09/02 07:46:50;;;;;;;2.80;1.55;;;;;;;;;;4979344;28;20507;-59
2023/09/02 07:49:19;;;;;;;4.05;1.90;;;;;;;;;;4981947;28;20061;-59
2023/09/02 07:51:47;;;;;;;3.80;1.85;;;;;;;;;;4982187;28;20574;-59
2023/09/02 07:54:15;;;;;;;3.95;1.60;;;;;;;;;;4983596;28;20121;-62
2023/09/02 07:56:44;;;;;;;3.63;1.80;;;;;;;;;;4983177;28;20103;-59
2023/09/02 07:59:12;;;;;;;3.22;1.48;;;;;;;;;;4981237;28;20078;-61
2023/09/02 08:01:42;;;;;;;2.67;1.70;;;;;;;;;;4982194;28;20050;-63
2023/09/02 08:04:10;;;;;;;1.98;1.42;;;;;;;;;;4980956;28;20074;-59
2023/09/02 08:06:41;;;;;;;2.67;1.50;;;;;;;;;;4980985;28;20047;-65
2023/09/02 08:09:09;;;;;;;2.30;1.55;;;;;;;;;;4984573;28;20162;-63
2023/09/02 08:11:38;;;;;;;5.43;1.30;;;;;;;;;;4982550;28;20121;-60
2023/09/02 08:14:06;;;;;;;4.32;1.58;;;;;;;;;;4980706;28;20558;-65
2023/09/02 08:16:35;;;;;;;2.45;1.65;;;;;;;;;;4979643;28;20058;-61
2023/09/02 08:19:04;;;;;;;3.33;1.63;;;;;;;;;;4982197;28;20119;-58
2023/09/02 08:21:33;;;;;;;1.80;1.38;;;;;;;;;;4983015;28;20050;-68
2023/09/02 08:24:01;;;;;;;2.15;1.35;;;;;;;;;;4984055;28;20113;-60
2023/09/02 08:26:29;;;;;;;3.38;1.55;;;;;;;;;;4983155;28;20052;-60
2023/09/02 08:28:58;;;;;;;2.70;1.60;;;;;;;;;;4985726;28;20502;-65
2023/09/02 08:31:26;;;;;;;3.38;1.52;;;;;;;;;;4983318;28;20390;-61
2023/09/02 08:33:55;;;;;;;3.72;1.55;;;;;;;;;;4985696;28;20062;-60
2023/09/02 08:36:24;;;;;;;4.68;1.30;;;;;;;;;;4985951;28;20141;-61
2023/09/02 08:38:54;;;;;;;3.63;1.58;;;;;;;;;;4986778;28;20046;-60
2023/09/02 08:41:26;;;;;;;4.70;1.38;;;;;;;;;;4984061;28;20069;-63
2023/09/02 08:43:55;;;;;;;4.60;1.70;;;;;;;;;;4981655;28;20134;-68
2023/09/02 08:46:27;;;;;;;2.40;1.33;;;;;;;;;;4980143;28;20125;-69
2023/09/02 08:48:57;;;;;;;5.22;1.40;;;;;;;;;;4985345;28;20467;-64
2023/09/02 08:51:27;;;;;;;5.07;1.83;;;;;;;;;;4983591;28;20399;-61
2023/09/02 08:53:56;;;;;;;2.55;1.75;;;;;;;;;;4985342;28;20050;-62
2023/09/02 08:56:25;;;;;;;5.10;1.40;;;;;;;;;;4984306;28;20076;-60
2023/09/02 08:58:54;;;;;;;2.60;1.63;;;;;;;;;;4983244;28;20074;-60
2023/09/02 09:01:25;;;;;;;3.10;1.45;;;;;;;;;;4981292;28;20065;-61
2023/09/02 09:03:54;;;;;;;3.38;1.63;;;;;;;;;;4985930;28;20149;-60
2023/09/02 09:06:24;;;;;;;2.15;1.35;;;;;;;;;;4981531;28;20627;-60
2023/09/02 09:08:54;;;;;;;2.80;1.60;;;;;;;;;;4986020;28;20133;-60
2023/09/02 09:11:24;;;;;;;3.33;1.40;;;;;;;;;;4985395;28;20046;-60
2023/09/02 09:13:55;;;;;;;2.17;1.27;;;;;;;;;;4984400;28;20385;-67
2023/09/02 09:16:25;;;;;;;2.90;1.65;;;;;;;;;;4982167;28;20125;-60
2023/09/02 09:18:54;;;;;;;3.22;1.45;;;;;;;;;;4979702;28;20057;-68
2023/09/02 09:21:22;;;;;;;3.13;1.50;;;;;;;;;;4982008;28;20096;-65
2023/09/02 09:23:51;;;;;;;3.28;1.33;;;;;;;;;;4985729;28;20058;-63
2023/09/02 09:26:22;;;;;;;4.30;1.67;;;;;;;;;;4979725;28;20050;-62
2023/09/02 09:28:52;;;;;;;3.30;1.50;;;;;;;;;;4985061;28;20050;-62
2023/09/02 09:31:21;;;;;;;2.95;1.30;;;;;;;;;;4981889;28;20046;-61
2023/09/02 09:33:50;;;;;;;5.22;1.48;;;;;;;;;;4983743;28;20109;-62
2023/09/02 09:36:21;;;;;;;4.63;1.50;;;;;;;;;;4985350;28;20042;-62
2023/09/02 09:38:50;;;;;;;2.78;1.65;;;;;;;;;;4984895;28;20038;-63
2023/09/02 09:41:18;;;;;;;3.40;1.40;;;;;;;;;;4985423;28;20420;-67
2023/09/02 09:44:03;;;;;;;3.92;1.58;;;;;;;;;;4983200;28;20074;-67
2023/09/02 09:46:31;;;;;;;3.55;1.50;;;;;;;;;;4983450;28;20074;-61
2023/09/02 09:49:01;;;;;;;2.22;1.30;;;;;;;;;;4985119;28;20042;-60
2023/09/02 09:51:30;;;;;;;2.13;1.27;;;;;;;;;;4984040;28;20109;-61
2023/09/02 09:53:58;;;;;;;2.38;1.38;;;;;;;;;;4983990;28;20544;-60
2023/09/02 09:56:27;;;;;;;1.90;1.27;;;;;;;;;;4985385;28;20046;-60
2023/09/02 09:58:57;;;;;;;2.72;1.50;;;;;;;;;;4985747;28;20051;-61
2023/09/02 10:01:25;;;;;;;2.55;1.40;;;;;;;;;;4980783;28;21336;-63
2023/09/02 10:03:55;;;;;;;4.07;1.50;;;;;;;;;;4980395;28;20393;-63
2023/09/02 10:06:23;;;;;;;2.60;1.52;;;;;;;;;;4981305;28;20565;-60
2023/09/02 10:08:52;;;;;;;2.83;1.20;;;;;;;;;;4981934;28;20177;-66
2023/09/02 10:11:21;;;;;;;3.22;1.20;;;;;;;;;;4981900;28;20104;-68
2023/09/02 10:13:53;;;;;;;4.13;1.58;;;;;;;;;;4982894;28;20038;-68
2023/09/02 10:16:24;;;;;;;3.53;1.10;;;;;;;;;;4979801;28;20101;-65
2023/09/02 10:18:53;;;;;;;4.15;1.05;;;;;;;;;;4984174;28;20109;-64
2023/09/02 10:21:22;;;;;;;1.85;1.10;;;;;;;;;;4981634;28;20133;-63
2023/09/02 10:23:56;;;;;;;3.67;1.27;;;;;;;;;;4983539;28;20178;-62
2023/09/02 10:26:26;;;;;;;4.45;1.27;;;;;;;;;;4981642;28;20081;-61
2023/09/02 10:28:57;;;;;;;2.38;1.40;;;;;;;;;;4984981;28;20050;-63
2023/09/02 10:31:29;;;;;;;3.15;1.33;;;;;;;;;;4985777;28;20063;-62
2023/09/02 10:34:03;;;;;;;2.97;1.13;;;;;;;;;;4979955;28;20053;-65
2023/09/02 10:36:33;;;;;;;4.03;1.67;;;;;;;;;;4983471;28;20053;-62
2023/09/02 10:39:04;;;;;;;1.88;1.20;;;;;;;;;;4982281;28;20104;-62
2023/09/02 10:41:32;;;;;;;2.30;1.30;;;;;;;;;;4983819;28;20061;-60
2023/09/02 10:44:01;;;;;;;3.75;1.40;;;;;;;;;;4980257;28;20092;-67
2023/09/02 10:46:32;;;;;;;2.80;1.27;;;;;;;;;;4984421;28;20066;-66
2023/09/02 10:49:00;;;;;;;2.30;1.20;;;;;;;;;;4983206;28;20050;-62
2023/09/02 10:51:29;;;;;;;2.33;1.48;;;;;;;;;;4982125;28;20142;-64
2023/09/02 10:54:01;;;;;;;4.05;1.40;;;;;;;;;;4981134;28;20118;-63
2023/09/02 10:56:31;;;;;;;3.17;1.30;;;;;;;;;;4983138;28;20060;-63
2023/09/02 10:59:00;;;;;;;4.05;1.35;;;;;;;;;;4985677;28;20315;-61
2023/09/02 11:01:42;;;;;;;2.55;1.45;;;;;;;;;;4979604;28;20050;-63
2023/09/02 11:04:11;;;;;;;2.60;1.30;;;;;;;;;;4975268;28;20053;-60
2023/09/02 11:07:03;;;;;;;4.63;1.50;;;;;;;;;;4980027;28;20125;-64
2023/09/02 11:09:49;;;;;;;3.58;1.50;;;;;;;;;;4982981;28;20615;-60
2023/09/02 11:12:19;;;;;;;2.22;1.38;;;;;;;;;;4981499;28;20086;-60
2023/09/02 11:15:02;;;;;;;4.38;1.60;;;;;;;;;;4981266;28;20081;-61
2023/09/02 11:17:32;;;;;;;1.60;1.20;;;;;;;;;;4981131;28;20456;-64
2023/09/02 11:20:01;;;;;;;1.63;1.05;;;;;;;;;;4984735;28;20054;-61
2023/09/02 11:22:48;;;;;;;3.28;1.50;;;;;;;;;;4981591;28;20093;-63
2023/09/02 11:25:26;;;;;;;2.28;1.67;;;;;;;;;;4982017;28;20268;-64
2023/09/02 11:27:55;;;;;;;3.30;1.58;;;;;;;;;;4975899;28;20186;-64
2023/09/02 11:30:23;;;;;;;2.53;1.30;;;;;;;;;;4975806;28;20054;-67
2023/09/02 11:32:54;;;;;;;3.33;1.42;;;;;;;;;;4981390;28;20129;-63
2023/09/02 11:35:25;;;;;;;3.63;1.55;;;;;;;;;;4980424;28;20080;-64
2023/09/02 11:37:53;;;;;;;1.90;1.10;;;;;;;;;;4978154;28;20054;-62
2023/09/02 11:40:24;;;;;;;2.90;1.40;;;;;;;;;;4977436;28;20046;-68
2023/09/02 11:42:53;;;;;;;1.70;1.10;;;;;;;;;;4974573;28;20519;-63
2023/09/02 11:45:22;;;;;;;1.40;1.20;;;;;;;;;;4972862;28;20054;-64
2023/09/02 11:47:51;;;;;;;3.22;1.10;;;;;;;;;;4978782;28;20058;-68
2023/09/02 11:50:24;;;;;;;2.13;1.20;;;;;;;;;;4974695;28;20046;-64
2023/09/02 11:52:54;;;;;;;2.47;1.40;;;;;;;;;;4979131;28;20046;-63
2023/09/02 11:55:22;;;;;;;2.33;1.30;;;;;;;;;;4977350;28;20046;-64
2023/09/02 11:57:51;;;;;;;2.88;1.23;;;;;;;;;;4976330;28;20479;-63
2023/09/02 12:00:20;;;;;;;3.67;1.08;;;;;;;;;;4976594;28;20057;-64
2023/09/02 12:02:49;;;;;;;1.65;1.10;;;;;;;;;;4981051;28;20061;-64
2023/09/02 12:05:18;;;;;;;2.15;1.45;;;;;;;;;;4977390;28;20062;-62
2023/09/02 12:07:48;;;;;;;1.98;1.10;;;;;;;;;;4983160;28;20109;-68
2023/09/02 12:10:24;;;;;;;1.75;1.20;;;;;;;;;;4980778;28;20077;-64
2023/09/02 12:12:55;;;;;;;1.90;1.08;;;;;;;;;;4982396;28;20038;-62
2023/09/02 12:15:23;;;;;;;3.45;1.10;;;;;;;;;;4982079;28;20051;-65
2023/09/02 12:17:51;;;;;;;3.38;1.27;;;;;;;;;;4981480;28;20042;-65
2023/09/02 12:20:20;;;;;;;3.65;1.15;;;;;;;;;;4983527;28;20042;-63
2023/09/02 12:22:50;;;;;;;4.50;1.38;;;;;;;;;;4984175;28;20109;-70
2023/09/02 12:25:19;;;;;;;3.00;1.33;;;;;;;;;;4981718;28;20463;-62
2023/09/02 12:27:48;;;;;;;2.70;1.13;;;;;;;;;;4983246;28;20172;-64
2023/09/02 12:30:25;;;;;;;2.08;1.20;;;;;;;;;;4981202;28;20530;-63
2023/09/02 12:32:55;;;;;;;7.43;1.65;;;;;;;;;;4982338;28;20385;-63
2023/09/02 12:35:23;;;;;;;4.38;1.23;;;;;;;;;;4984184;28;20404;-65
2023/09/02 12:38:02;;;;;;;3.80;1.40;;;;;;;;;;4985484;28;20120;-63
2023/09/02 12:40:31;;;;;;;2.33;1.20;;;;;;;;;;4988369;28;20290;-62
2023/09/02 12:42:59;;;;;;;2.30;1.25;;;;;;;;;;4987371;28;20101;-64
2023/09/02 12:45:29;;;;;;;3.03;1.10;;;;;;;;;;4984124;28;20209;-64
2023/09/02 12:47:58;;;;;;;2.28;1.20;;;;;;;;;;4986258;28;20057;-64
2023/09/02 12:50:27;;;;;;;3.03;1.30;;;;;;;;;;4984213;28;20054;-68
2023/09/02 12:52:56;;;;;;;2.65;1.50;;;;;;;;;;4986814;28;20050;-62
2023/09/02 12:55:26;;;;;;;2.92;1.13;;;;;;;;;;4985721;28;20046;-65
2023/09/02 12:57:56;;;;;;;3.42;1.30;;;;;;;;;;4983555;28;20129;-65
2023/09/02 13:00:25;;;;;;;1.40;1.00;;;;;;;;;;4979168;28;20053;-63
2023/09/02 13:02:54;;;;;;;2.53;1.02;;;;;;;;;;4982425;28;20382;-64
2023/09/02 13:05:23;;;;;;;3.28;1.20;;;;;;;;;;4982873;28;20051;-62
2023/09/02 13:07:51;;;;;;;2.42;1.15;;;;;;;;;;4985968;28;20057;-64
2023/09/02 13:10:19;;;;;;;2.10;1.10;;;;;;;;;;4983197;28;20124;-64
2023/09/02 13:12:50;;;;;;;2.17;1.20;;;;;;;;;;4982146;28;20061;-62
2023/09/02 13:15:18;;;;;;;2.00;1.08;;;;;;;;;;4982251;28;20438;-64
2023/09/02 13:17:47;;;;;;;1.63;1.13;;;;;;;;;;4982136;28;22102;-63
2023/09/02 13:20:16;;;;;;;2.35;1.10;;;;;;;;;;4982603;28;20054;-63
2023/09/02 13:22:47;;;;;;;2.40;1.00;;;;;;;;;;4983499;28;20046;-64
2023/09/02 13:25:17;;;;;;;2.15;1.02;;;;;;;;;;4983692;28;20050;-63
2023/09/02 13:27:45;;;;;;;3.97;1.20;;;;;;;;;;4983359;28;20050;-61
2023/09/02 13:30:17;;;;;;;1.45;0.93;;;;;;;;;;4981856;28;20117;-61
2023/09/02 13:32:45;;;;;;;5.80;1.23;;;;;;;;;;4982506;28;20590;-67
2023/09/02 13:35:16;;;;;;;2.83;1.20;;;;;;;;;;4983994;28;20046;-71
2023/09/02 13:37:45;;;;;;;2.72;1.23;;;;;;;;;;4982559;28;20051;-66
2023/09/02 13:40:28;;;;;;;3.28;1.13;;;;;;;;;;4971341;28;20610;-63
2023/09/02 13:42:56;;;;;;;1.75;1.17;;;;;;;;;;4980509;28;20763;-65
2023/09/02 13:45:28;;;;;;;3.38;0.80;;;;;;;;;;4980689;28;20072;-65
2023/09/02 13:47:57;;;;;;;1.27;0.90;;;;;;;;;;4980049;28;20507;-69
2023/09/02 13:50:25;;;;;;;3.65;1.10;;;;;;;;;;4976636;28;20054;-63
2023/09/02 13:52:55;;;;;;;2.53;1.08;;;;;;;;;;4979767;28;20128;-62
2023/09/02 13:55:27;;;;;;;2.05;1.05;;;;;;;;;;4976956;28;20089;-63
2023/09/02 13:57:55;;;;;;;2.65;1.38;;;;;;;;;;4980746;28;20038;-61
2023/09/02 14:00:27;;;;;;;2.28;1.20;;;;;;;;;;4982023;28;20078;-62
2023/09/02 14:02:57;;;;;;;2.45;1.10;;;;;;;;;;4983061;28;20049;-64
2023/09/02 14:05:26;;;;;;;2.60;1.13;;;;;;;;;;4977454;28;20186;-64
2023/09/02 14:07:56;;;;;;;1.70;0.93;;;;;;;;;;4980093;28;20462;-64
2023/09/02 14:10:24;;;;;;;1.02;0.90;;;;;;;;;;4979467;28;20089;-62
2023/09/02 14:12:52;;;;;;;3.03;1.10;;;;;;;;;;4978285;28;20577;-68
2023/09/02 14:15:21;;;;;;;1.40;0.93;;;;;;;;;;4982132;28;20335;-66
2023/09/02 14:17:49;;;;;;;2.28;1.20;;;;;;;;;;4980681;28;20069;-64
2023/09/02 14:20:19;;;;;;;1.80;1.02;;;;;;;;;;4979830;28;20076;-67
2023/09/02 14:22:48;;;;;;;1.20;0.80;;;;;;;;;;4978244;28;20562;-62
2023/09/02 14:25:16;;;;;;;1.52;0.90;;;;;;;;;;4975557;28;20911;-64
2023/09/02 14:27:44;;;;;;;2.20;0.98;;;;;;;;;;4980234;28;20177;-61
2023/09/02 14:30:13;;;;;;;1.42;0.95;;;;;;;;;;4981370;28;20777;-67
2023/09/02 14:32:42;;;;;;;1.70;0.90;;;;;;;;;;4978379;28;20050;-63
2023/09/02 14:35:10;;;;;;;3.70;1.70;;;;;;;;;;4980171;28;20046;-62
2023/09/02 14:37:40;;;;;;;1.50;1.02;;;;;;;;;;4984196;28;20065;-62
2023/09/02 14:40:08;;;;;;;2.60;0.80;;;;;;;;;;4984963;28;20050;-63
2023/09/02 14:42:37;;;;;;;2.10;1.10;;;;;;;;;;4983952;28;20062;-63
2023/09/02 14:45:06;;;;;;;1.60;1.00;;;;;;;;;;4979846;28;20108;-62
2023/09/02 14:47:34;;;;;;;1.77;1.00;;;;;;;;;;4983440;28;20124;-63
2023/09/02 14:50:04;;;;;;;2.80;0.93;;;;;;;;;;4981086;28;20399;-62
2023/09/02 14:52:34;;;;;;;1.70;0.98;;;;;;;;;;4978198;28;20050;-64
2023/09/02 14:55:05;;;;;;;2.45;1.25;;;;;;;;;;4983310;28;20077;-61
2023/09/02 14:57:35;;;;;;;2.30;1.13;;;;;;;;;;4978949;28;20141;-66